Portada
METAR-TAF:

METAR-TAF

Aeropuertos :

Burgos, España

Aeropuerto de Burgos

latitud: 42-22N, longitud: 003-38W, altitud: 894 m

Observación

El informe se hizo hace 33 minutos, a las 19:00 UTC
Viento 12 kt del sur
Temperatura 10°C
Humedad 87%
Presión 1008 hPa
Visibilidad 10 km o más
Cielo nuboso a una altura de 5000 ft
chaparrones de lluvia

METAR: LEBG 291900Z AUTO 17012KT 9999 -SHRA BKN050 ///TCU 10/08 Q1008

Hora: 21:33 (19:33 UTC)

Pronóstico

El informe se hizo hace 2 horas y 33 minutos, a las 17:00 UTC
Pronóstico válido del 29 a las 18 UTC al 30 a las 03 UTC
Viento 10 kt del sur
Visibilidad 10 km o más
Nubes dispersas a una altura de 4000 ft
Probabilidad 30% :
Temporalmente
del 29 a las 18 UTC al 29 a las 20 UTC
Visibilidad: 4000 m
Escasas nubes a una altura de 3000 ft, Cumulus congestus.
chaparrones de lluvia

TAF: LEBG 291700Z 2918/3003 17010KT 9999 SCT040 PROB30 TEMPO 2918/2920 4000 SHRA FEW030TCU

Observaciones y pronósticos meteorológicos de más de 4000 aeropuertos (mensajes METAR y TAF).

Los puntos amarillos y rojos representan las estaciones disponibles.

Ponga el ratón en el punto deseado para ver el nombre de la estación.

Haga clic para ver las observaciones y los pronósticos meteorológicos.

Para cambiar el mapa : haga clic en los botones verdes con una cruz de color negro para hacer un zoom, en el botón verde con un guión para alejar o en las flechas verdes para mapas adyacentes.


METAR-TAF: